sensor_id;sensor_type;location;lat;lon;timestamp;P1;P2;P0
39955;PMS5003;25631;51.516;-0.470;2024-01-11T00:00:21;2;2;
39955;PMS5003;25631;51.516;-0.470;2024-01-11T00:02:57;1;0;
39955;PMS5003;25631;51.516;-0.470;2024-01-11T00:05:34;1;0;
39955;PMS5003;25631;51.516;-0.470;2024-01-11T00:08:10;2;2;
39955;PMS5003;25631;51.516;-0.470;2024-01-11T00:10:47;4;3;
39955;PMS5003;25631;51.516;-0.470;2024-01-11T00:13:23;4;3;
39955;PMS5003;25631;51.516;-0.470;2024-01-11T00:16:00;3;3;
39955;PMS5003;25631;51.516;-0.470;2024-01-11T00:18:36;3;3;
39955;PMS5003;25631;51.516;-0.470;2024-01-11T00:21:13;3;3;
39955;PMS5003;25631;51.516;-0.470;2024-01-11T00:23:49;1;0;
39955;PMS5003;25631;51.516;-0.470;2024-01-11T00:26:25;2;0;
39955;PMS5003;25631;51.516;-0.470;2024-01-11T00:29:02;3;2;
39955;PMS5003;25631;51.516;-0.470;2024-01-11T00:31:38;3;2;
39955;PMS5003;25631;51.516;-0.470;2024-01-11T00:34:14;2;2;
39955;PMS5003;25631;51.516;-0.470;2024-01-11T00:36:51;2;2;
39955;PMS5003;25631;51.516;-0.470;2024-01-11T00:39:27;2;1;
39955;PMS5003;25631;51.516;-0.470;2024-01-11T00:42:04;3;2;
39955;PMS5003;25631;51.516;-0.470;2024-01-11T00:44:41;3;3;
39955;PMS5003;25631;51.516;-0.470;2024-01-11T00:47:17;3;3;
39955;PMS5003;25631;51.516;-0.470;2024-01-11T00:49:54;2;2;
39955;PMS5003;25631;51.516;-0.470;2024-01-11T00:52:30;1;1;
39955;PMS5003;25631;51.516;-0.470;2024-01-11T00:55:07;1;1;
39955;PMS5003;25631;51.516;-0.470;2024-01-11T00:57:44;2;2;
39955;PMS5003;25631;51.516;-0.470;2024-01-11T01:00:20;2;2;
39955;PMS5003;25631;51.516;-0.470;2024-01-11T01:02:56;2;1;
39955;PMS5003;25631;51.516;-0.470;2024-01-11T01:05:33;1;1;
39955;PMS5003;25631;51.516;-0.470;2024-01-11T01:08:09;3;2;
39955;PMS5003;25631;51.516;-0.470;2024-01-11T01:10:46;1;1;
39955;PMS5003;25631;51.516;-0.470;2024-01-11T01:13:22;1;1;
39955;PMS5003;25631;51.516;-0.470;2024-01-11T01:15:59;3;2;
39955;PMS5003;25631;51.516;-0.470;2024-01-11T01:18:35;3;2;
39955;PMS5003;25631;51.516;-0.470;2024-01-11T01:21:11;3;2;
39955;PMS5003;25631;51.516;-0.470;2024-01-11T01:23:48;2;1;
39955;PMS5003;25631;51.516;-0.470;2024-01-11T01:26:24;3;2;
39955;PMS5003;25631;51.516;-0.470;2024-01-11T01:29:00;3;3;
39955;PMS5003;25631;51.516;-0.470;2024-01-11T01:31:37;4;4;
39955;PMS5003;25631;51.516;-0.470;2024-01-11T01:34:13;5;4;
39955;PMS5003;25631;51.516;-0.470;2024-01-11T01:36:50;2;1;
39955;PMS5003;25631;51.516;-0.470;2024-01-11T01:39:26;2;2;
39955;PMS5003;25631;51.516;-0.470;2024-01-11T01:42:03;4;2;
39955;PMS5003;25631;51.516;-0.470;2024-01-11T01:44:40;2;1;
39955;PMS5003;25631;51.516;-0.470;2024-01-11T01:47:16;2;1;
39955;PMS5003;25631;51.516;-0.470;2024-01-11T01:49:54;1;1;
39955;PMS5003;25631;51.516;-0.470;2024-01-11T01:52:31;0;0;
39955;PMS5003;25631;51.516;-0.470;2024-01-11T01:55:09;1;1;
39955;PMS5003;25631;51.516;-0.470;2024-01-11T01:57:48;1;1;
39955;PMS5003;25631;51.516;-0.470;2024-01-11T02:00:25;2;1;
39955;PMS5003;25631;51.516;-0.470;2024-01-11T02:03:03;4;2;
39955;PMS5003;25631;51.516;-0.470;2024-01-11T02:05:40;5;2;
39955;PMS5003;25631;51.516;-0.470;2024-01-11T02:08:17;5;2;
39955;PMS5003;25631;51.516;-0.470;2024-01-11T02:10:57;3;1;
39955;PMS5003;25631;51.516;-0.470;2024-01-11T02:13:35;2;1;
39955;PMS5003;25631;51.516;-0.470;2024-01-11T02:16:12;2;1;
39955;PMS5003;25631;51.516;-0.470;2024-01-11T02:18:49;2;1;
39955;PMS5003;25631;51.516;-0.470;2024-01-11T02:21:25;1;1;
39955;PMS5003;25631;51.516;-0.470;2024-01-11T02:24:03;3;2;
39955;PMS5003;25631;51.516;-0.470;2024-01-11T02:26:57;1;1;
39955;PMS5003;25631;51.516;-0.470;2024-01-11T02:29:34;1;0;
39955;PMS5003;25631;51.516;-0.470;2024-01-11T02:32:10;2;1;
39955;PMS5003;25631;51.516;-0.470;2024-01-11T02:34:47;2;1;
39955;PMS5003;25631;51.516;-0.470;2024-01-11T02:37:24;4;3;
39955;PMS5003;25631;51.516;-0.470;2024-01-11T02:40:01;4;2;
39955;PMS5003;25631;51.516;-0.470;2024-01-11T02:42:37;4;3;
39955;PMS5003;25631;51.516;-0.470;2024-01-11T02:45:14;1;0;
39955;PMS5003;25631;51.516;-0.470;2024-01-11T02:47:50;2;1;
39955;PMS5003;25631;51.516;-0.470;2024-01-11T02:50:27;2;1;
39955;PMS5003;25631;51.516;-0.470;2024-01-11T02:53:03;2;1;
39955;PMS5003;25631;51.516;-0.470;2024-01-11T02:55:39;2;1;
39955;PMS5003;25631;51.516;-0.470;2024-01-11T02:58:16;1;1;
39955;PMS5003;25631;51.516;-0.470;2024-01-11T03:00:52;2;2;
39955;PMS5003;25631;51.516;-0.470;2024-01-11T03:03:29;0;0;
39955;PMS5003;25631;51.516;-0.470;2024-01-11T03:06:05;1;1;
39955;PMS5003;25631;51.516;-0.470;2024-01-11T03:08:42;3;1;
39955;PMS5003;25631;51.516;-0.470;2024-01-11T03:11:18;2;1;
39955;PMS5003;25631;51.516;-0.470;2024-01-11T03:13:54;2;1;
39955;PMS5003;25631;51.516;-0.470;2024-01-11T03:16:31;1;1;
39955;PMS5003;25631;51.516;-0.470;2024-01-11T03:19:07;3;2;
39955;PMS5003;25631;51.516;-0.470;2024-01-11T03:21:44;3;2;
39955;PMS5003;25631;51.516;-0.470;2024-01-11T03:24:21;2;2;
39955;PMS5003;25631;51.516;-0.470;2024-01-11T03:26:57;2;2;
39955;PMS5003;25631;51.516;-0.470;2024-01-11T03:29:33;2;2;
39955;PMS5003;25631;51.516;-0.470;2024-01-11T03:32:26;0;0;
39955;PMS5003;25631;51.516;-0.470;2024-01-11T03:35:02;1;0;
39955;PMS5003;25631;51.516;-0.470;2024-01-11T03:37:39;2;1;
39955;PMS5003;25631;51.516;-0.470;2024-01-11T03:40:15;2;1;
39955;PMS5003;25631;51.516;-0.470;2024-01-11T03:42:52;3;2;
39955;PMS5003;25631;51.516;-0.470;2024-01-11T03:45:28;2;1;
39955;PMS5003;25631;51.516;-0.470;2024-01-11T03:48:05;2;1;
39955;PMS5003;25631;51.516;-0.470;2024-01-11T03:50:41;3;1;
39955;PMS5003;25631;51.516;-0.470;2024-01-11T03:53:18;1;1;
39955;PMS5003;25631;51.516;-0.470;2024-01-11T03:55:54;1;1;
39955;PMS5003;25631;51.516;-0.470;2024-01-11T03:58:31;1;1;
39955;PMS5003;25631;51.516;-0.470;2024-01-11T04:01:07;1;1;
39955;PMS5003;25631;51.516;-0.470;2024-01-11T04:03:43;1;1;
39955;PMS5003;25631;51.516;-0.470;2024-01-11T04:06:20;3;2;
39955;PMS5003;25631;51.516;-0.470;2024-01-11T04:08:56;2;1;
39955;PMS5003;25631;51.516;-0.470;2024-01-11T04:11:33;1;1;
39955;PMS5003;25631;51.516;-0.470;2024-01-11T04:14:09;4;3;
39955;PMS5003;25631;51.516;-0.470;2024-01-11T04:16:46;5;4;
39955;PMS5003;25631;51.516;-0.470;2024-01-11T04:19:22;3;1;
39955;PMS5003;25631;51.516;-0.470;2024-01-11T04:21:59;2;0;
39955;PMS5003;25631;51.516;-0.470;2024-01-11T04:24:35;2;2;
39955;PMS5003;25631;51.516;-0.470;2024-01-11T04:27:12;2;1;
39955;PMS5003;25631;51.516;-0.470;2024-01-11T04:29:48;2;1;
39955;PMS5003;25631;51.516;-0.470;2024-01-11T04:32:24;4;1;
39955;PMS5003;25631;51.516;-0.470;2024-01-11T04:35:01;2;0;
39955;PMS5003;25631;51.516;-0.470;2024-01-11T04:37:37;2;1;
39955;PMS5003;25631;51.516;-0.470;2024-01-11T04:40:13;1;1;
39955;PMS5003;25631;51.516;-0.470;2024-01-11T04:42:50;0;0;
39955;PMS5003;25631;51.516;-0.470;2024-01-11T04:45:26;1;0;
39955;PMS5003;25631;51.516;-0.470;2024-01-11T04:48:03;3;1;
39955;PMS5003;25631;51.516;-0.470;2024-01-11T04:50:40;1;0;
39955;PMS5003;25631;51.516;-0.470;2024-01-11T04:53:16;3;2;
39955;PMS5003;25631;51.516;-0.470;2024-01-11T04:55:52;3;2;
39955;PMS5003;25631;51.516;-0.470;2024-01-11T04:58:29;3;2;
39955;PMS5003;25631;51.516;-0.470;2024-01-11T05:01:05;3;2;
39955;PMS5003;25631;51.516;-0.470;2024-01-11T05:03:42;3;1;
39955;PMS5003;25631;51.516;-0.470;2024-01-11T05:06:20;3;2;
39955;PMS5003;25631;51.516;-0.470;2024-01-11T05:08:57;1;1;
39955;PMS5003;25631;51.516;-0.470;2024-01-11T05:11:34;2;1;
39955;PMS5003;25631;51.516;-0.470;2024-01-11T05:14:10;3;3;
39955;PMS5003;25631;51.516;-0.470;2024-01-11T05:16:46;2;2;
39955;PMS5003;25631;51.516;-0.470;2024-01-11T05:19:23;2;2;
39955;PMS5003;25631;51.516;-0.470;2024-01-11T05:21:59;1;1;
39955;PMS5003;25631;51.516;-0.470;2024-01-11T05:24:36;1;1;
39955;PMS5003;25631;51.516;-0.470;2024-01-11T05:27:12;4;4;
39955;PMS5003;25631;51.516;-0.470;2024-01-11T05:29:48;4;4;
39955;PMS5003;25631;51.516;-0.470;2024-01-11T05:32:25;4;4;
39955;PMS5003;25631;51.516;-0.470;2024-01-11T05:35:01;10;9;
39955;PMS5003;25631;51.516;-0.470;2024-01-11T05:37:38;9;8;
39955;PMS5003;25631;51.516;-0.470;2024-01-11T05:40:14;5;4;
39955;PMS5003;25631;51.516;-0.470;2024-01-11T05:42:50;4;4;
39955;PMS5003;25631;51.516;-0.470;2024-01-11T05:45:27;6;6;
39955;PMS5003;25631;51.516;-0.470;2024-01-11T05:48:03;7;7;
39955;PMS5003;25631;51.516;-0.470;2024-01-11T05:50:40;8;7;
39955;PMS5003;25631;51.516;-0.470;2024-01-11T05:53:17;7;7;
39955;PMS5003;25631;51.516;-0.470;2024-01-11T05:55:53;7;7;
39955;PMS5003;25631;51.516;-0.470;2024-01-11T05:58:29;7;6;
39955;PMS5003;25631;51.516;-0.470;2024-01-11T06:01:06;6;6;
39955;PMS5003;25631;51.516;-0.470;2024-01-11T06:03:42;3;3;
39955;PMS5003;25631;51.516;-0.470;2024-01-11T06:06:19;5;5;
39955;PMS5003;25631;51.516;-0.470;2024-01-11T06:08:55;8;7;
39955;PMS5003;25631;51.516;-0.470;2024-01-11T06:11:31;8;7;
39955;PMS5003;25631;51.516;-0.470;2024-01-11T06:14:08;3;3;
39955;PMS5003;25631;51.516;-0.470;2024-01-11T06:16:45;4;4;
39955;PMS5003;25631;51.516;-0.470;2024-01-11T06:19:22;5;4;
39955;PMS5003;25631;51.516;-0.470;2024-01-11T06:21:58;3;3;
39955;PMS5003;25631;51.516;-0.470;2024-01-11T06:24:35;3;3;
39955;PMS5003;25631;51.516;-0.470;2024-01-11T06:27:11;5;4;
39955;PMS5003;25631;51.516;-0.470;2024-01-11T06:29:48;6;5;
39955;PMS5003;25631;51.516;-0.470;2024-01-11T06:32:24;5;5;
39955;PMS5003;25631;51.516;-0.470;2024-01-11T06:35:00;3;1;
39955;PMS5003;25631;51.516;-0.470;2024-01-11T06:37:37;3;1;
39955;PMS5003;25631;51.516;-0.470;2024-01-11T06:40:14;3;2;
39955;PMS5003;25631;51.516;-0.470;2024-01-11T06:42:50;3;3;
39955;PMS5003;25631;51.516;-0.470;2024-01-11T06:45:27;3;3;
39955;PMS5003;25631;51.516;-0.470;2024-01-11T06:48:04;2;2;
39955;PMS5003;25631;51.516;-0.470;2024-01-11T06:50:41;2;2;
39955;PMS5003;25631;51.516;-0.470;2024-01-11T06:53:17;2;1;
39955;PMS5003;25631;51.516;-0.470;2024-01-11T06:55:53;3;2;
39955;PMS5003;25631;51.516;-0.470;2024-01-11T06:58:30;2;1;
39955;PMS5003;25631;51.516;-0.470;2024-01-11T07:01:06;4;3;
39955;PMS5003;25631;51.516;-0.470;2024-01-11T07:03:43;3;3;
39955;PMS5003;25631;51.516;-0.470;2024-01-11T07:06:20;3;2;
39955;PMS5003;25631;51.516;-0.470;2024-01-11T07:08:56;2;1;
39955;PMS5003;25631;51.516;-0.470;2024-01-11T07:11:32;3;1;
39955;PMS5003;25631;51.516;-0.470;2024-01-11T07:14:09;2;1;
39955;PMS5003;25631;51.516;-0.470;2024-01-11T07:16:45;2;2;
39955;PMS5003;25631;51.516;-0.470;2024-01-11T07:19:22;3;3;
39955;PMS5003;25631;51.516;-0.470;2024-01-11T07:21:59;4;3;
39955;PMS5003;25631;51.516;-0.470;2024-01-11T07:24:35;4;2;
39955;PMS5003;25631;51.516;-0.470;2024-01-11T07:27:12;4;2;
39955;PMS5003;25631;51.516;-0.470;2024-01-11T07:29:48;5;5;
39955;PMS5003;25631;51.516;-0.470;2024-01-11T07:32:25;4;4;
39955;PMS5003;25631;51.516;-0.470;2024-01-11T07:35:02;3;2;
39955;PMS5003;25631;51.516;-0.470;2024-01-11T07:37:39;4;2;
39955;PMS5003;25631;51.516;-0.470;2024-01-11T07:40:15;6;2;
39955;PMS5003;25631;51.516;-0.470;2024-01-11T07:42:52;3;1;
39955;PMS5003;25631;51.516;-0.470;2024-01-11T07:45:28;2;1;
39955;PMS5003;25631;51.516;-0.470;2024-01-11T07:48:05;2;2;
39955;PMS5003;25631;51.516;-0.470;2024-01-11T07:50:42;7;3;
39955;PMS5003;25631;51.516;-0.470;2024-01-11T07:53:18;4;2;
39955;PMS5003;25631;51.516;-0.470;2024-01-11T07:55:54;3;2;
39955;PMS5003;25631;51.516;-0.470;2024-01-11T07:58:31;3;2;
39955;PMS5003;25631;51.516;-0.470;2024-01-11T08:01:08;3;3;
39955;PMS5003;25631;51.516;-0.470;2024-01-11T08:03:45;2;2;
39955;PMS5003;25631;51.516;-0.470;2024-01-11T08:06:22;1;1;
39955;PMS5003;25631;51.516;-0.470;2024-01-11T08:08:58;3;2;
39955;PMS5003;25631;51.516;-0.470;2024-01-11T08:11:35;5;2;
39955;PMS5003;25631;51.516;-0.470;2024-01-11T08:14:11;4;2;
39955;PMS5003;25631;51.516;-0.470;2024-01-11T08:16:47;5;2;
39955;PMS5003;25631;51.516;-0.470;2024-01-11T08:19:24;4;2;
39955;PMS5003;25631;51.516;-0.470;2024-01-11T08:22:00;5;3;
39955;PMS5003;25631;51.516;-0.470;2024-01-11T08:24:37;3;2;
39955;PMS5003;25631;51.516;-0.470;2024-01-11T08:27:13;3;1;
39955;PMS5003;25631;51.516;-0.470;2024-01-11T08:29:49;4;1;
39955;PMS5003;25631;51.516;-0.470;2024-01-11T08:32:26;1;1;
39955;PMS5003;25631;51.516;-0.470;2024-01-11T08:35:03;2;1;
39955;PMS5003;25631;51.516;-0.470;2024-01-11T08:37:40;3;1;
39955;PMS5003;25631;51.516;-0.470;2024-01-11T08:40:16;4;2;
39955;PMS5003;25631;51.516;-0.470;2024-01-11T08:42:53;4;3;
39955;PMS5003;25631;51.516;-0.470;2024-01-11T08:45:29;5;2;
39955;PMS5003;25631;51.516;-0.470;2024-01-11T08:48:06;4;3;
39955;PMS5003;25631;51.516;-0.470;2024-01-11T08:50:42;6;4;
39955;PMS5003;25631;51.516;-0.470;2024-01-11T08:53:19;5;3;
39955;PMS5003;25631;51.516;-0.470;2024-01-11T08:55:55;5;3;
39955;PMS5003;25631;51.516;-0.470;2024-01-11T08:58:31;4;3;
39955;PMS5003;25631;51.516;-0.470;2024-01-11T09:01:08;6;3;
39955;PMS5003;25631;51.516;-0.470;2024-01-11T09:03:44;7;5;
39955;PMS5003;25631;51.516;-0.470;2024-01-11T09:06:20;6;4;
39955;PMS5003;25631;51.516;-0.470;2024-01-11T09:08:57;5;3;
39955;PMS5003;25631;51.516;-0.470;2024-01-11T09:11:33;2;2;
39955;PMS5003;25631;51.516;-0.470;2024-01-11T09:14:10;3;1;
39955;PMS5003;25631;51.516;-0.470;2024-01-11T09:16:46;4;3;
39955;PMS5003;25631;51.516;-0.470;2024-01-11T09:19:22;7;6;
39955;PMS5003;25631;51.516;-0.470;2024-01-11T09:21:59;12;10;
39955;PMS5003;25631;51.516;-0.470;2024-01-11T09:24:36;3;2;
39955;PMS5003;25631;51.516;-0.470;2024-01-11T09:27:12;3;3;
39955;PMS5003;25631;51.516;-0.470;2024-01-11T09:29:49;3;3;
39955;PMS5003;25631;51.516;-0.470;2024-01-11T09:32:25;1;1;
39955;PMS5003;25631;51.516;-0.470;2024-01-11T09:35:02;1;1;
39955;PMS5003;25631;51.516;-0.470;2024-01-11T09:37:39;11;7;
39955;PMS5003;25631;51.516;-0.470;2024-01-11T09:40:16;12;8;
39955;PMS5003;25631;51.516;-0.470;2024-01-11T09:42:54;4;3;
39955;PMS5003;25631;51.516;-0.470;2024-01-11T09:45:30;3;2;
39955;PMS5003;25631;51.516;-0.470;2024-01-11T09:48:07;3;2;
39955;PMS5003;25631;51.516;-0.470;2024-01-11T09:50:45;4;3;
39955;PMS5003;25631;51.516;-0.470;2024-01-11T09:53:21;4;3;
39955;PMS5003;25631;51.516;-0.470;2024-01-11T09:56:00;3;3;
39955;PMS5003;25631;51.516;-0.470;2024-01-11T09:58:36;7;4;
39955;PMS5003;25631;51.516;-0.470;2024-01-11T10:01:17;6;4;
39955;PMS5003;25631;51.516;-0.470;2024-01-11T10:03:53;4;2;
39955;PMS5003;25631;51.516;-0.470;2024-01-11T10:06:30;6;3;
39955;PMS5003;25631;51.516;-0.470;2024-01-11T10:09:09;6;3;
39955;PMS5003;25631;51.516;-0.470;2024-01-11T10:11:46;6;5;
39955;PMS5003;25631;51.516;-0.470;2024-01-11T10:14:22;5;4;
39955;PMS5003;25631;51.516;-0.470;2024-01-11T10:16:59;5;2;
39955;PMS5003;25631;51.516;-0.470;2024-01-11T10:19:35;6;4;
39955;PMS5003;25631;51.516;-0.470;2024-01-11T10:22:11;9;6;
39955;PMS5003;25631;51.516;-0.470;2024-01-11T10:24:48;3;2;
39955;PMS5003;25631;51.516;-0.470;2024-01-11T10:27:26;3;1;
39955;PMS5003;25631;51.516;-0.470;2024-01-11T10:30:02;4;2;
39955;PMS5003;25631;51.516;-0.470;2024-01-11T10:32:39;3;2;
39955;PMS5003;25631;51.516;-0.470;2024-01-11T10:35:16;2;2;
39955;PMS5003;25631;51.516;-0.470;2024-01-11T10:37:52;2;2;
39955;PMS5003;25631;51.516;-0.470;2024-01-11T10:40:32;2;2;
39955;PMS5003;25631;51.516;-0.470;2024-01-11T10:43:09;2;2;
39955;PMS5003;25631;51.516;-0.470;2024-01-11T10:45:46;3;3;
39955;PMS5003;25631;51.516;-0.470;2024-01-11T10:48:25;3;3;
39955;PMS5003;25631;51.516;-0.470;2024-01-11T10:51:05;3;2;
39955;PMS5003;25631;51.516;-0.470;2024-01-11T10:53:44;2;2;
39955;PMS5003;25631;51.516;-0.470;2024-01-11T10:56:21;3;2;
39955;PMS5003;25631;51.516;-0.470;2024-01-11T10:58:59;5;3;
39955;PMS5003;25631;51.516;-0.470;2024-01-11T11:01:37;5;4;
39955;PMS5003;25631;51.516;-0.470;2024-01-11T11:04:15;4;3;
39955;PMS5003;25631;51.516;-0.470;2024-01-11T11:06:54;3;2;
39955;PMS5003;25631;51.516;-0.470;2024-01-11T11:09:31;4;3;
39955;PMS5003;25631;51.516;-0.470;2024-01-11T11:12:09;6;4;
39955;PMS5003;25631;51.516;-0.470;2024-01-11T11:14:46;4;3;
39955;PMS5003;25631;51.516;-0.470;2024-01-11T11:17:24;5;3;
39955;PMS5003;25631;51.516;-0.470;2024-01-11T11:20:01;4;3;
39955;PMS5003;25631;51.516;-0.470;2024-01-11T11:22:37;4;2;
39955;PMS5003;25631;51.516;-0.470;2024-01-11T11:25:24;1;1;
39955;PMS5003;25631;51.516;-0.470;2024-01-11T11:28:00;1;1;
39955;PMS5003;25631;51.516;-0.470;2024-01-11T11:30:37;3;2;
39955;PMS5003;25631;51.516;-0.470;2024-01-11T11:33:16;2;2;
39955;PMS5003;25631;51.516;-0.470;2024-01-11T11:35:53;3;2;
39955;PMS5003;25631;51.516;-0.470;2024-01-11T11:38:34;4;3;
39955;PMS5003;25631;51.516;-0.470;2024-01-11T11:41:11;4;3;
39955;PMS5003;25631;51.516;-0.470;2024-01-11T11:43:48;3;3;
39955;PMS5003;25631;51.516;-0.470;2024-01-11T11:46:24;2;2;
39955;PMS5003;25631;51.516;-0.470;2024-01-11T11:49:01;3;3;
39955;PMS5003;25631;51.516;-0.470;2024-01-11T11:51:39;2;2;
39955;PMS5003;25631;51.516;-0.470;2024-01-11T11:54:15;6;3;
39955;PMS5003;25631;51.516;-0.470;2024-01-11T11:56:52;6;4;
39955;PMS5003;25631;51.516;-0.470;2024-01-11T11:59:29;6;3;
39955;PMS5003;25631;51.516;-0.470;2024-01-11T12:02:06;6;3;
39955;PMS5003;25631;51.516;-0.470;2024-01-11T12:04:52;4;3;
39955;PMS5003;25631;51.516;-0.470;2024-01-11T12:07:28;4;4;
39955;PMS5003;25631;51.516;-0.470;2024-01-11T12:10:05;4;4;
39955;PMS5003;25631;51.516;-0.470;2024-01-11T12:12:42;2;1;
39955;PMS5003;25631;51.516;-0.470;2024-01-11T12:15:19;1;1;
39955;PMS5003;25631;51.516;-0.470;2024-01-11T12:17:57;1;1;
39955;PMS5003;25631;51.516;-0.470;2024-01-11T12:20:33;5;5;
39955;PMS5003;25631;51.516;-0.470;2024-01-11T12:23:10;3;3;
39955;PMS5003;25631;51.516;-0.470;2024-01-11T12:25:46;4;4;
39955;PMS5003;25631;51.516;-0.470;2024-01-11T12:28:23;3;3;
39955;PMS5003;25631;51.516;-0.470;2024-01-11T12:31:00;2;2;
39955;PMS5003;25631;51.516;-0.470;2024-01-11T12:33:36;3;2;
39955;PMS5003;25631;51.516;-0.470;2024-01-11T12:36:13;3;3;
39955;PMS5003;25631;51.516;-0.470;2024-01-11T12:38:50;5;4;
39955;PMS5003;25631;51.516;-0.470;2024-01-11T12:41:27;5;3;
39955;PMS5003;25631;51.516;-0.470;2024-01-11T12:44:04;6;4;
39955;PMS5003;25631;51.516;-0.470;2024-01-11T12:46:40;1;1;
39955;PMS5003;25631;51.516;-0.470;2024-01-11T12:49:17;2;1;
39955;PMS5003;25631;51.516;-0.470;2024-01-11T12:51:54;4;3;
39955;PMS5003;25631;51.516;-0.470;2024-01-11T12:54:31;4;4;
39955;PMS5003;25631;51.516;-0.470;2024-01-11T12:57:10;5;4;
39955;PMS5003;25631;51.516;-0.470;2024-01-11T12:59:47;7;7;
39955;PMS5003;25631;51.516;-0.470;2024-01-11T13:02:24;7;7;
39955;PMS5003;25631;51.516;-0.470;2024-01-11T13:05:00;8;7;
39955;PMS5003;25631;51.516;-0.470;2024-01-11T13:07:37;11;11;
39955;PMS5003;25631;51.516;-0.470;2024-01-11T13:10:13;11;10;
39955;PMS5003;25631;51.516;-0.470;2024-01-11T13:12:50;4;4;
39955;PMS5003;25631;51.516;-0.470;2024-01-11T13:15:26;4;4;
39955;PMS5003;25631;51.516;-0.470;2024-01-11T13:18:03;6;5;
39955;PMS5003;25631;51.516;-0.470;2024-01-11T13:20:40;5;4;
39955;PMS5003;25631;51.516;-0.470;2024-01-11T13:23:17;6;5;
39955;PMS5003;25631;51.516;-0.470;2024-01-11T13:25:54;6;4;
39955;PMS5003;25631;51.516;-0.470;2024-01-11T13:28:30;7;5;
39955;PMS5003;25631;51.516;-0.470;2024-01-11T13:31:07;7;4;
39955;PMS5003;25631;51.516;-0.470;2024-01-11T13:33:43;6;4;
39955;PMS5003;25631;51.516;-0.470;2024-01-11T13:36:20;7;4;
39955;PMS5003;25631;51.516;-0.470;2024-01-11T13:38:56;7;5;
39955;PMS5003;25631;51.516;-0.470;2024-01-11T13:41:32;3;3;
39955;PMS5003;25631;51.516;-0.470;2024-01-11T13:44:09;3;3;
39955;PMS5003;25631;51.516;-0.470;2024-01-11T13:46:45;4;3;
39955;PMS5003;25631;51.516;-0.470;2024-01-11T13:49:22;4;2;
39955;PMS5003;25631;51.516;-0.470;2024-01-11T13:51:58;5;4;
39955;PMS5003;25631;51.516;-0.470;2024-01-11T13:54:34;6;4;
39955;PMS5003;25631;51.516;-0.470;2024-01-11T13:57:11;8;5;
39955;PMS5003;25631;51.516;-0.470;2024-01-11T13:59:47;7;6;
39955;PMS5003;25631;51.516;-0.470;2024-01-11T14:02:24;7;6;
39955;PMS5003;25631;51.516;-0.470;2024-01-11T14:05:00;5;4;
39955;PMS5003;25631;51.516;-0.470;2024-01-11T14:07:37;3;2;
39955;PMS5003;25631;51.516;-0.470;2024-01-11T14:10:14;3;3;
39955;PMS5003;25631;51.516;-0.470;2024-01-11T14:12:51;5;5;
39955;PMS5003;25631;51.516;-0.470;2024-01-11T14:15:28;5;4;
39955;PMS5003;25631;51.516;-0.470;2024-01-11T14:18:05;4;3;
39955;PMS5003;25631;51.516;-0.470;2024-01-11T14:20:42;3;3;
39955;PMS5003;25631;51.516;-0.470;2024-01-11T14:23:18;3;2;
39955;PMS5003;25631;51.516;-0.470;2024-01-11T14:25:55;3;3;
39955;PMS5003;25631;51.516;-0.470;2024-01-11T14:28:31;5;3;
39955;PMS5003;25631;51.516;-0.470;2024-01-11T14:31:07;6;4;
39955;PMS5003;25631;51.516;-0.470;2024-01-11T14:33:44;4;3;
39955;PMS5003;25631;51.516;-0.470;2024-01-11T14:36:20;3;2;
39955;PMS5003;25631;51.516;-0.470;2024-01-11T14:38:57;4;4;
39955;PMS5003;25631;51.516;-0.470;2024-01-11T14:41:33;2;2;
39955;PMS5003;25631;51.516;-0.470;2024-01-11T14:44:09;3;3;
39955;PMS5003;25631;51.516;-0.470;2024-01-11T14:46:46;1;1;
39955;PMS5003;25631;51.516;-0.470;2024-01-11T14:49:22;2;1;
39955;PMS5003;25631;51.516;-0.470;2024-01-11T14:51:59;2;1;
39955;PMS5003;25631;51.516;-0.470;2024-01-11T14:54:35;3;1;
39955;PMS5003;25631;51.516;-0.470;2024-01-11T14:57:11;3;1;
39955;PMS5003;25631;51.516;-0.470;2024-01-11T14:59:48;3;2;
39955;PMS5003;25631;51.516;-0.470;2024-01-11T15:02:24;6;4;
39955;PMS5003;25631;51.516;-0.470;2024-01-11T15:05:01;7;4;
39955;PMS5003;25631;51.516;-0.470;2024-01-11T15:07:37;7;5;
39955;PMS5003;25631;51.516;-0.470;2024-01-11T15:10:14;8;7;
39955;PMS5003;25631;51.516;-0.470;2024-01-11T15:12:50;5;5;
39955;PMS5003;25631;51.516;-0.470;2024-01-11T15:15:27;6;4;
39955;PMS5003;25631;51.516;-0.470;2024-01-11T15:18:04;7;4;
39955;PMS5003;25631;51.516;-0.470;2024-01-11T15:20:41;9;6;
39955;PMS5003;25631;51.516;-0.470;2024-01-11T15:23:18;3;3;
39955;PMS5003;25631;51.516;-0.470;2024-01-11T15:25:55;5;5;
39955;PMS5003;25631;51.516;-0.470;2024-01-11T15:28:31;2;2;
39955;PMS5003;25631;51.516;-0.470;2024-01-11T15:31:08;2;2;
39955;PMS5003;25631;51.516;-0.470;2024-01-11T15:33:44;3;3;
39955;PMS5003;25631;51.516;-0.470;2024-01-11T15:36:21;5;2;
39955;PMS5003;25631;51.516;-0.470;2024-01-11T15:38:57;5;2;
39955;PMS5003;25631;51.516;-0.470;2024-01-11T15:41:34;2;2;
39955;PMS5003;25631;51.516;-0.470;2024-01-11T15:44:10;0;0;
39955;PMS5003;25631;51.516;-0.470;2024-01-11T15:46:47;1;1;
39955;PMS5003;25631;51.516;-0.470;2024-01-11T15:49:23;4;4;
39955;PMS5003;25631;51.516;-0.470;2024-01-11T15:52:00;3;3;
39955;PMS5003;25631;51.516;-0.470;2024-01-11T15:54:36;4;3;
39955;PMS5003;25631;51.516;-0.470;2024-01-11T15:57:13;6;4;
39955;PMS5003;25631;51.516;-0.470;2024-01-11T15:59:49;5;3;
39955;PMS5003;25631;51.516;-0.470;2024-01-11T16:02:25;5;4;
39955;PMS5003;25631;51.516;-0.470;2024-01-11T16:05:02;3;2;
39955;PMS5003;25631;51.516;-0.470;2024-01-11T16:07:38;2;2;
39955;PMS5003;25631;51.516;-0.470;2024-01-11T16:10:15;3;2;
39955;PMS5003;25631;51.516;-0.470;2024-01-11T16:12:52;4;3;
39955;PMS5003;25631;51.516;-0.470;2024-01-11T16:15:28;4;3;
39955;PMS5003;25631;51.516;-0.470;2024-01-11T16:18:04;4;3;
39955;PMS5003;25631;51.516;-0.470;2024-01-11T16:20:41;3;3;
39955;PMS5003;25631;51.516;-0.470;2024-01-11T16:23:18;4;4;
39955;PMS5003;25631;51.516;-0.470;2024-01-11T16:25:54;4;4;
39955;PMS5003;25631;51.516;-0.470;2024-01-11T16:28:31;3;3;
39955;PMS5003;25631;51.516;-0.470;2024-01-11T16:31:07;3;3;
39955;PMS5003;25631;51.516;-0.470;2024-01-11T16:33:44;3;3;
39955;PMS5003;25631;51.516;-0.470;2024-01-11T16:36:20;3;2;
39955;PMS5003;25631;51.516;-0.470;2024-01-11T16:38:57;3;3;
39955;PMS5003;25631;51.516;-0.470;2024-01-11T16:41:33;3;3;
39955;PMS5003;25631;51.516;-0.470;2024-01-11T16:44:10;5;3;
39955;PMS5003;25631;51.516;-0.470;2024-01-11T16:46:46;5;3;
39955;PMS5003;25631;51.516;-0.470;2024-01-11T16:49:23;2;2;
39955;PMS5003;25631;51.516;-0.470;2024-01-11T16:51:59;3;2;
39955;PMS5003;25631;51.516;-0.470;2024-01-11T16:54:36;3;2;
39955;PMS5003;25631;51.516;-0.470;2024-01-11T16:57:12;3;2;
39955;PMS5003;25631;51.516;-0.470;2024-01-11T16:59:48;3;3;
39955;PMS5003;25631;51.516;-0.470;2024-01-11T17:02:25;3;3;
39955;PMS5003;25631;51.516;-0.470;2024-01-11T17:05:01;4;3;
39955;PMS5003;25631;51.516;-0.470;2024-01-11T17:07:38;3;3;
39955;PMS5003;25631;51.516;-0.470;2024-01-11T17:10:15;5;3;
39955;PMS5003;25631;51.516;-0.470;2024-01-11T17:12:51;6;3;
39955;PMS5003;25631;51.516;-0.470;2024-01-11T17:15:28;6;4;
39955;PMS5003;25631;51.516;-0.470;2024-01-11T17:18:04;5;4;
39955;PMS5003;25631;51.516;-0.470;2024-01-11T17:20:40;4;3;
39955;PMS5003;25631;51.516;-0.470;2024-01-11T17:23:17;3;2;
39955;PMS5003;25631;51.516;-0.470;2024-01-11T17:25:53;3;3;
39955;PMS5003;25631;51.516;-0.470;2024-01-11T17:28:30;2;2;
39955;PMS5003;25631;51.516;-0.470;2024-01-11T17:31:06;4;3;
39955;PMS5003;25631;51.516;-0.470;2024-01-11T17:33:43;3;2;
39955;PMS5003;25631;51.516;-0.470;2024-01-11T17:36:19;2;2;